Aurora, IL

9:05 AM CST on February 11, 2016 (GMT -0600)
Oakhurst | | Change Station
CLOSE
Current Station
Personal Weather Station
Location: Aurora, IL
Elevation: 712 ft
Nearby Weather Stations

Elev 712 ft 41.76 °N, 88.25 °W | Updated 26 seconds ago

Clear
Clear
12.6 °F
Feels Like 13 °F
N
0.4
Wind Variable Wind from ENE
Gusts 2.5 mph

Today
High -- | Low -- °F
--% Chance of Precip.
Yesterday
High -- | Low -- °F
Precip. -- in
Pressure 30.35 in
Visibility 10.0 miles
Clouds Clear
Windchill 13 °F
Dew Point -8 °F
Humidity 38%
Rainfall 0.00 in
Snow Depth Not available.
6:54 AM 5:20 PM
Waxing Crescent, 12% visible
METAR KDPA 111452Z 35007KT 10SM CLR M12/M18 A3030 RMK AO2 SLP276 T11171183 53016
Pressure 30.35 in
Visibility 10.0 miles
Clouds Clear
Windchill 13 °F
Dew Point -8 °F
Humidity 38%
Rainfall 0.00 in
Snow Depth Not available.
6:54 AM 5:20 PM
Waxing Crescent, 12% visible
METAR KDPA 111452Z 35007KT 10SM CLR M12/M18 A3030 RMK AO2 SLP276 T11171183 53016

10-Day Weather Forecast

Almanac

Astronomy

Feb. 11, 2016 Rise Set
Actual Time
Civil Twilight
Nautical Twilight
Astronomical Twilight
Moon
Length of Visible Light
Length of Day
Tomorrow will be .
, % of the Moon is Illuminated

Today's Extremes

State Highs State Lows

Community

WunderPhotos

Upload Photos

1,892,059 photos uploaded!

WunderBlog® & News

Nearby

Air Quality

  Air Quality AQ Index Pollutant
Not available.

Snow Depth

Station Depth Elevation

Earthquake Activity

City Distance Mag. Time & Date
Minimum magnitude displayed is 2.5.

Coastal Water Temperatures

Place Temperature

Stations

Nearby Weather Stations

Station Location Temp. Windchill Dew Point Humidity Wind Precip. Elev Updated Type
                   

Watches & Warnings

There are currently no watches in effect.